createdAt,value
2023-01-06T00:01:17.882Z,59.34
2023-01-06T00:03:44.479Z,59.67
2023-01-06T00:06:12.568Z,59.66
2023-01-06T00:08:40.525Z,59.31
2023-01-06T00:11:12.406Z,59.39
2023-01-06T00:13:39.996Z,59.61
2023-01-06T00:16:12.234Z,59.85
2023-01-06T00:18:39.250Z,59.78
2023-01-06T00:21:06.878Z,60.00
2023-01-06T00:23:34.595Z,60.02
2023-01-06T00:26:01.501Z,60.37
2023-01-06T00:28:28.705Z,60.29
2023-01-06T00:30:55.332Z,60.72
2023-01-06T00:33:21.720Z,58.94
2023-01-06T00:35:48.176Z,60.56
2023-01-06T00:38:14.637Z,60.76
2023-01-06T00:40:41.110Z,61.15
2023-01-06T00:43:07.621Z,61.08
2023-01-06T00:45:34.113Z,61.17
2023-01-06T00:48:00.634Z,61.42
2023-01-06T00:50:27.267Z,61.13
2023-01-06T00:52:54.378Z,61.31
2023-01-06T00:55:20.955Z,61.28
2023-01-06T00:57:47.477Z,61.30
2023-01-06T01:00:14.165Z,61.18
2023-01-06T01:02:40.685Z,59.15
2023-01-06T01:05:07.622Z,61.21
2023-01-06T01:07:34.074Z,61.15
2023-01-06T01:10:00.580Z,61.08
2023-01-06T01:12:27.212Z,61.55
2023-01-06T01:14:54.070Z,59.91
2023-01-06T01:17:26.865Z,61.49
2023-01-06T01:19:55.561Z,61.33
2023-01-06T01:22:23.311Z,61.80
2023-01-06T01:24:50.111Z,61.74
2023-01-06T01:27:17.232Z,61.92
2023-01-06T01:29:43.764Z,62.23
2023-01-06T01:32:10.794Z,61.87
2023-01-06T01:34:37.555Z,62.22
2023-01-06T01:37:04.060Z,62.15
2023-01-06T01:39:30.998Z,62.15
2023-01-06T01:41:58.916Z,62.07
2023-01-06T01:44:56.426Z,61.66
2023-01-06T01:47:44.786Z,61.60
2023-01-06T01:50:14.846Z,62.26
2023-01-06T01:52:43.697Z,62.20
2023-01-06T01:55:11.642Z,62.38
2023-01-06T01:57:45.120Z,62.53
2023-01-06T02:00:12.086Z,62.68
2023-01-06T02:02:39.222Z,62.43
2023-01-06T02:05:07.593Z,62.30
2023-01-06T02:07:34.250Z,62.45
2023-01-06T02:10:04.961Z,60.68
2023-01-06T02:12:31.960Z,62.04
2023-01-06T02:14:58.445Z,62.17
2023-01-06T02:17:45.431Z,61.90
2023-01-06T02:20:43.491Z,62.20
2023-01-06T02:23:23.304Z,61.90
2023-01-06T02:26:17.862Z,62.16
2023-01-06T02:29:30.330Z,61.96
2023-01-06T02:32:08.616Z,62.41
2023-01-06T02:34:59.664Z,61.71
2023-01-06T02:38:03.133Z,61.75
2023-01-06T02:40:41.117Z,62.31
2023-01-06T02:43:32.719Z,62.11
2023-01-06T02:46:08.120Z,61.75
2023-01-06T02:48:45.060Z,61.98
2023-01-06T02:51:24.787Z,61.64
2023-01-06T02:54:27.159Z,61.13
2023-01-06T02:57:21.860Z,61.41
2023-01-06T03:00:04.085Z,61.78
2023-01-06T03:02:32.120Z,62.23
2023-01-06T03:05:02.145Z,62.09
2023-01-06T03:07:31.846Z,62.11
2023-01-06T03:10:01.490Z,62.39
2023-01-06T03:12:37.723Z,62.35
2023-01-06T03:15:04.658Z,62.33
2023-01-06T03:17:31.287Z,61.91
2023-01-06T03:19:57.743Z,60.70
2023-01-06T03:22:25.441Z,61.87
2023-01-06T03:24:52.285Z,62.12
2023-01-06T03:27:23.175Z,62.23
2023-01-06T03:29:49.656Z,62.30
2023-01-06T03:32:37.460Z,61.55
2023-01-06T03:35:21.923Z,60.52
2023-01-06T03:37:52.321Z,61.96
2023-01-06T03:40:35.647Z,61.75
2023-01-06T03:43:41.664Z,61.63
2023-01-06T03:46:29.988Z,62.05
2023-01-06T03:49:02.375Z,61.90
2023-01-06T03:51:55.648Z,61.52
2023-01-06T03:54:41.044Z,61.95
2023-01-06T03:57:15.276Z,61.83
2023-01-06T03:59:47.406Z,61.99
2023-01-06T04:02:15.167Z,61.80
2023-01-06T04:04:41.728Z,61.83
2023-01-06T04:07:08.335Z,61.92
2023-01-06T04:09:34.789Z,62.07
2023-01-06T04:12:19.868Z,61.92
2023-01-06T04:14:46.320Z,61.88
2023-01-06T04:17:13.745Z,61.97
2023-01-06T04:19:40.349Z,62.21
2023-01-06T04:22:06.851Z,62.01
2023-01-06T04:24:33.311Z,61.72
2023-01-06T04:26:59.833Z,62.03
2023-01-06T04:29:26.309Z,61.64
2023-01-06T04:31:52.793Z,61.66
2023-01-06T04:34:19.309Z,61.94
2023-01-06T04:36:45.764Z,61.58
2023-01-06T04:39:12.213Z,61.94
2023-01-06T04:41:38.661Z,61.67
2023-01-06T04:44:05.209Z,61.61
2023-01-06T04:46:31.658Z,61.95
2023-01-06T04:48:58.134Z,61.65
2023-01-06T04:51:24.566Z,61.42
2023-01-06T04:53:51.181Z,61.40
2023-01-06T04:56:17.658Z,61.34
2023-01-06T04:58:44.172Z,61.25
2023-01-06T05:01:12.427Z,61.46
2023-01-06T05:03:39.760Z,61.39
2023-01-06T05:06:12.199Z,61.63
2023-01-06T05:08:40.242Z,61.53
2023-01-06T05:11:10.058Z,61.42
2023-01-06T05:13:37.319Z,61.08
2023-01-06T05:16:12.380Z,60.94
2023-01-06T12:03:43.948Z,59.49
2023-01-06T12:06:13.733Z,59.40
2023-01-06T12:08:51.879Z,59.17
2023-01-06T12:11:43.485Z,59.14
2023-01-06T12:14:27.830Z,59.70
2023-01-06T12:17:33.543Z,58.86
2023-01-06T12:20:13.336Z,59.17
2023-01-06T12:23:01.039Z,59.01
2023-01-06T12:25:43.519Z,58.80
2023-01-06T12:28:18.361Z,58.86
2023-01-06T12:31:03.541Z,58.65
2023-01-06T12:33:39.943Z,58.76
2023-01-06T12:36:23.234Z,58.34
2023-01-06T12:38:56.231Z,57.98
2023-01-06T12:41:28.524Z,57.84
2023-01-06T12:44:24.263Z,58.08
2023-01-06T12:47:02.351Z,57.92
2023-01-06T12:49:40.140Z,57.75
2023-01-06T12:52:13.098Z,57.26
2023-01-06T12:54:40.069Z,57.32
2023-01-06T12:57:44.104Z,57.36
2023-01-06T13:00:30.987Z,57.07
2023-01-06T13:03:10.651Z,57.09
2023-01-06T13:06:05.546Z,57.04
2023-01-06T13:09:06.774Z,56.68
2023-01-06T13:12:00.752Z,56.21
2023-01-06T13:14:40.990Z,56.19
2023-01-06T13:17:26.284Z,55.98
2023-01-06T13:19:56.095Z,55.51
2023-01-06T13:23:17.868Z,55.58
2023-01-06T13:25:49.407Z,54.63
2023-01-06T13:28:25.227Z,55.13
2023-01-06T13:31:09.738Z,54.81
2023-01-06T13:33:39.073Z,54.35
2023-01-06T13:36:08.251Z,54.11
2023-01-06T13:39:05.609Z,54.83
2023-01-06T13:41:37.147Z,54.78
2023-01-06T13:44:07.209Z,54.49
2023-01-06T13:46:34.893Z,54.77
2023-01-06T13:49:05.127Z,55.04
2023-01-06T13:51:37.744Z,55.21
2023-01-06T13:54:04.334Z,55.34
2023-01-06T13:56:32.112Z,55.34
2023-01-06T13:59:21.315Z,55.10
2023-01-06T14:01:48.465Z,55.10
2023-01-06T14:04:33.357Z,55.46
2023-01-06T14:07:00.663Z,54.98
2023-01-06T14:09:28.383Z,55.33
2023-01-06T14:12:08.405Z,55.50
2023-01-06T14:14:38.605Z,55.50
2023-01-06T14:17:05.455Z,55.43
2023-01-06T14:19:37.098Z,55.85
2023-01-06T14:22:19.008Z,55.68
2023-01-06T14:24:53.395Z,54.75
2023-01-06T14:27:47.846Z,55.04
2023-01-06T14:31:11.628Z,54.74
2023-01-06T14:33:39.926Z,54.21
2023-01-06T14:36:14.114Z,53.99
2023-01-06T14:38:50.522Z,53.99
2023-01-06T14:41:29.292Z,54.03
2023-01-06T14:44:19.124Z,54.04
2023-01-06T14:46:51.617Z,53.58
2023-01-06T14:49:31.307Z,53.32
2023-01-06T14:52:19.320Z,53.17
2023-01-06T14:54:48.252Z,52.92
2023-01-06T14:57:35.045Z,53.57
2023-01-06T15:00:30.066Z,53.87
2023-01-06T15:02:58.825Z,53.08
2023-01-06T15:05:37.249Z,53.64
2023-01-06T15:08:16.373Z,53.92
2023-01-06T15:10:48.586Z,53.18
2023-01-06T15:13:28.012Z,53.68
2023-01-06T15:16:02.968Z,53.36
2023-01-06T15:18:29.740Z,53.01
2023-01-06T15:20:56.564Z,53.05
2023-01-06T15:23:23.169Z,52.83
2023-01-06T15:25:50.398Z,52.88
2023-01-06T15:28:27.116Z,53.58
2023-01-06T15:30:54.073Z,52.78
2023-01-06T15:33:27.821Z,53.15
2023-01-06T15:35:55.079Z,52.84
2023-01-06T15:38:31.142Z,53.03
2023-01-06T15:40:57.897Z,52.56
2023-01-06T15:43:26.965Z,52.70
2023-01-06T15:46:03.845Z,53.23
2023-01-06T15:48:34.042Z,52.97
2023-01-06T15:51:01.159Z,53.16
2023-01-06T15:53:32.689Z,53.09
2023-01-06T15:56:00.939Z,52.92
2023-01-06T15:58:39.653Z,53.26
2023-01-06T16:01:13.446Z,53.24
2023-01-06T16:03:40.336Z,53.27
2023-01-06T16:06:12.714Z,53.34
2023-01-06T16:08:40.572Z,53.06
2023-01-06T16:11:15.955Z,53.61
2023-01-06T16:14:03.253Z,53.63
2023-01-06T16:16:43.037Z,53.29
2023-01-06T16:19:22.947Z,54.00
2023-01-06T16:22:02.864Z,53.65
2023-01-06T16:24:30.296Z,53.24
2023-01-06T16:27:06.081Z,53.94
2023-01-06T16:29:38.264Z,53.85
2023-01-06T16:32:33.750Z,53.63
2023-01-06T16:35:17.979Z,53.67
2023-01-06T16:37:45.458Z,53.28
2023-01-06T16:40:16.990Z,53.43
2023-01-06T16:42:44.983Z,53.62
2023-01-06T16:45:32.335Z,53.85
2023-01-06T16:47:59.453Z,53.57
2023-01-06T16:50:38.402Z,53.63
2023-01-06T16:53:16.388Z,53.81
2023-01-06T16:55:43.584Z,53.43
2023-01-06T16:58:18.183Z,53.72
2023-01-06T17:00:51.644Z,53.75
2023-01-06T17:03:24.335Z,53.81
2023-01-06T17:05:54.038Z,53.79
2023-01-06T17:08:32.573Z,54.09
2023-01-06T17:11:01.892Z,53.76
2023-01-06T17:13:35.630Z,53.99
2023-01-06T17:16:17.480Z,53.95
2023-01-06T17:18:51.828Z,53.76
2023-01-06T17:21:28.560Z,54.06
2023-01-06T17:24:02.557Z,53.63
2023-01-06T17:26:29.740Z,53.84
2023-01-06T17:28:57.658Z,53.83
2023-01-06T17:31:47.040Z,54.00
2023-01-06T17:34:25.077Z,53.70
2023-01-06T17:36:55.847Z,53.40
2023-01-06T17:39:31.264Z,54.01
2023-01-06T17:42:05.323Z,53.86
2023-01-06T17:44:48.402Z,53.79
2023-01-06T17:47:15.235Z,53.87
2023-01-06T17:49:46.637Z,53.75
2023-01-06T17:52:21.653Z,53.98
2023-01-06T17:55:16.738Z,53.78
2023-01-06T17:57:46.993Z,53.91
2023-01-06T18:00:18.892Z,54.12
2023-01-06T18:05:25.988Z,53.88
2023-01-06T18:08:07.453Z,53.85
2023-01-06T18:10:36.687Z,53.61
2023-01-06T18:13:19.086Z,54.13
2023-01-06T18:15:46.843Z,54.05
2023-01-06T18:18:27.502Z,54.14
2023-01-06T18:20:58.916Z,54.06
2023-01-06T18:23:26.526Z,53.92
2023-01-06T18:25:57.193Z,54.23
2023-01-06T18:28:23.708Z,54.03
2023-01-06T18:31:01.387Z,53.79
2023-01-06T18:33:29.576Z,53.92
2023-01-06T18:35:59.329Z,54.11
2023-01-06T18:38:30.104Z,54.02
2023-01-06T18:40:56.821Z,54.11
2023-01-06T18:43:28.077Z,54.12
2023-01-06T18:45:58.072Z,53.95
2023-01-06T18:48:29.717Z,53.98
2023-01-06T18:50:58.489Z,53.89
2023-01-06T18:53:43.244Z,54.29
2023-01-06T18:56:21.550Z,54.17
2023-01-06T18:58:52.457Z,54.41
2023-01-06T19:01:23.557Z,54.27
2023-01-06T19:03:59.119Z,54.38
2023-01-06T19:06:38.625Z,54.56
2023-01-06T19:09:17.089Z,54.72
2023-01-06T19:11:43.936Z,54.82
2023-01-06T19:14:17.222Z,55.24
2023-01-06T19:16:48.777Z,54.77
2023-01-06T19:19:40.278Z,54.93
2023-01-06T19:22:16.200Z,55.11
2023-01-06T19:24:59.331Z,54.82
2023-01-06T19:27:35.130Z,54.58
2023-01-06T19:30:28.622Z,54.78
2023-01-06T19:32:57.955Z,55.25
2023-01-06T19:35:27.214Z,54.94
2023-01-06T19:37:59.674Z,55.27
2023-01-06T19:40:31.389Z,55.37
2023-01-06T19:43:02.522Z,55.54
2023-01-06T19:45:32.541Z,56.13
2023-01-06T19:48:01.025Z,56.13
2023-01-06T19:50:27.471Z,55.17
2023-01-06T19:52:59.375Z,55.80
2023-01-06T19:55:28.785Z,56.14
2023-01-06T19:57:57.046Z,56.08
2023-01-06T20:00:30.919Z,56.31
2023-01-06T20:03:01.839Z,56.18
2023-01-06T20:05:29.860Z,56.74
2023-01-06T20:07:56.341Z,56.67
2023-01-06T20:10:23.038Z,56.14
2023-01-06T20:12:49.675Z,55.32
2023-01-06T20:15:16.498Z,56.42
2023-01-06T20:17:43.096Z,56.52
2023-01-06T20:20:09.807Z,55.34
2023-01-06T20:22:36.355Z,56.52
2023-01-06T20:25:03.258Z,56.67
2023-01-06T20:27:29.770Z,56.54
2023-01-06T20:29:56.300Z,56.78
2023-01-06T20:32:22.804Z,56.78
2023-01-06T20:34:49.586Z,57.15
2023-01-06T20:37:16.110Z,57.19
2023-01-06T20:39:42.646Z,57.16
2023-01-06T20:42:09.724Z,57.25
2023-01-06T20:44:36.844Z,57.31
2023-01-06T20:47:03.714Z,57.49
2023-01-06T20:49:30.255Z,57.62
2023-01-06T20:51:56.752Z,57.39
2023-01-06T20:54:23.333Z,57.79
2023-01-06T20:56:49.884Z,57.74
2023-01-06T20:59:16.435Z,57.88
2023-01-06T21:01:43.040Z,57.44
2023-01-06T21:04:09.607Z,56.42
2023-01-06T21:06:36.114Z,57.66
2023-01-06T21:09:02.868Z,57.78
2023-01-06T21:11:29.400Z,56.28
2023-01-06T21:13:56.030Z,57.59
2023-01-06T21:16:22.845Z,56.40
2023-01-06T21:18:49.857Z,57.85
2023-01-06T21:21:16.413Z,58.09
2023-01-06T21:23:43.148Z,58.00
2023-01-06T21:26:09.724Z,57.95
2023-01-06T21:28:36.224Z,58.50
2023-01-06T21:31:02.802Z,58.41
2023-01-06T21:33:29.442Z,58.72
2023-01-06T21:35:55.960Z,58.32
2023-01-06T21:38:22.535Z,58.61
2023-01-06T21:40:49.143Z,58.51
2023-01-06T21:43:15.682Z,58.71
2023-01-06T21:45:44.145Z,58.99
2023-01-06T21:48:12.556Z,59.00
2023-01-06T21:50:43.536Z,58.65
2023-01-06T21:53:12.268Z,58.76
2023-01-06T21:55:39.260Z,58.78
2023-01-06T21:58:05.850Z,58.88
2023-01-06T22:00:32.516Z,58.69
2023-01-06T22:02:59.105Z,58.63
2023-01-06T22:05:25.642Z,57.35
2023-01-06T22:07:53.184Z,58.59
2023-01-06T22:10:22.988Z,58.39
2023-01-06T22:12:52.792Z,59.03
2023-01-06T22:15:19.973Z,58.92
2023-01-06T22:17:46.771Z,59.16
2023-01-06T22:20:13.706Z,58.94
2023-01-06T22:22:41.234Z,59.32
2023-01-06T22:25:08.249Z,59.00
2023-01-06T22:27:34.762Z,59.47
2023-01-06T22:30:01.257Z,59.41
2023-01-06T22:32:28.469Z,59.30
2023-01-06T22:34:54.993Z,59.23
2023-01-06T22:37:21.566Z,59.50
2023-01-06T22:39:49.312Z,59.37
2023-01-06T22:42:16.211Z,59.84
2023-01-06T22:44:42.726Z,59.59
2023-01-06T22:47:09.257Z,59.80
2023-01-06T22:49:35.761Z,59.87
2023-01-06T22:52:02.325Z,59.73
2023-01-06T22:54:29.062Z,59.96
2023-01-06T22:56:55.611Z,59.98
2023-01-06T22:59:22.123Z,59.88
2023-01-06T23:01:48.780Z,59.99
2023-01-06T23:04:15.197Z,58.29
2023-01-06T23:06:42.199Z,59.84
2023-01-06T23:09:09.050Z,60.06
2023-01-06T23:11:41.565Z,59.94
2023-01-06T23:14:09.826Z,60.57
2023-01-06T23:16:38.337Z,61.26
2023-01-06T23:19:05.911Z,61.62
2023-01-06T23:21:33.890Z,61.79
2023-01-06T23:24:01.206Z,62.05
2023-01-06T23:26:30.880Z,61.81
2023-01-06T23:28:57.968Z,62.37
2023-01-06T23:31:30.493Z,62.20
2023-01-06T23:34:00.371Z,62.28
2023-01-06T23:36:30.707Z,62.50
2023-01-06T23:38:59.679Z,62.08
2023-01-06T23:41:31.821Z,61.78
2023-01-06T23:43:58.849Z,62.13
2023-01-06T23:46:29.364Z,61.87
2023-01-06T23:48:56.990Z,62.15
2023-01-06T23:51:25.410Z,61.84
2023-01-06T23:53:52.970Z,61.96
2023-01-06T23:56:22.241Z,62.20
2023-01-06T23:58:51.789Z,61.90
